createdAt,value
2023-03-15T00:00:00.596Z,58.4
2023-03-15T00:01:03.088Z,58.6
2023-03-15T00:02:00.595Z,59.0
2023-03-15T00:03:00.612Z,58.8
2023-03-15T00:04:00.595Z,58.6
2023-03-15T00:05:00.624Z,58.5
2023-03-15T00:06:00.580Z,58.8
2023-03-15T00:07:00.660Z,58.6
2023-03-15T00:08:02.800Z,58.3
2023-03-15T00:09:00.675Z,59.2
2023-03-15T00:10:00.558Z,58.5
2023-03-15T00:11:00.612Z,58.3
2023-03-15T00:12:00.633Z,58.1
2023-03-15T00:13:00.580Z,58.0
2023-03-15T00:14:00.579Z,57.9
2023-03-15T00:15:00.629Z,58.3
2023-03-15T00:16:01.365Z,58.2
2023-03-15T00:17:00.568Z,58.2
2023-03-15T00:18:10.457Z,58.2
2023-03-15T00:19:10.440Z,58.1
2023-03-15T00:20:10.463Z,57.8
2023-03-15T00:21:10.431Z,57.7
2023-03-15T00:22:10.569Z,57.5
2023-03-15T00:23:10.419Z,57.3
2023-03-15T00:24:10.420Z,56.9
2023-03-15T00:25:10.437Z,56.6
2023-03-15T00:26:10.468Z,56.1
2023-03-15T00:27:10.455Z,55.7
2023-03-15T00:28:10.488Z,55.2
2023-03-15T00:29:00.628Z,54.6
2023-03-15T00:30:00.583Z,54.3
2023-03-15T00:31:05.332Z,54.0
2023-03-15T00:32:00.577Z,53.8
2023-03-15T00:33:00.604Z,53.9
2023-03-15T00:34:00.557Z,53.9
2023-03-15T00:35:00.592Z,54.0
2023-03-15T00:36:03.287Z,53.6
2023-03-15T00:37:00.612Z,53.3
2023-03-15T00:38:00.620Z,53.3
2023-03-15T00:39:00.862Z,53.1
2023-03-15T00:40:00.583Z,53.1
2023-03-15T00:41:04.428Z,52.7
2023-03-15T00:42:00.605Z,52.8
2023-03-15T00:43:00.576Z,52.7
2023-03-15T00:44:00.697Z,52.6
2023-03-15T00:45:00.549Z,52.6
2023-03-15T00:46:01.042Z,52.6
2023-03-15T00:47:00.561Z,52.6
2023-03-15T00:48:00.572Z,52.6
2023-03-15T00:49:00.614Z,52.5
2023-03-15T00:50:00.636Z,52.5
2023-03-15T00:51:01.617Z,52.4
2023-03-15T00:52:00.570Z,52.4
2023-03-15T00:53:00.583Z,52.3
2023-03-15T00:54:00.564Z,52.3
2023-03-15T00:55:00.621Z,52.2
2023-03-15T00:56:09.146Z,52.3
2023-03-15T00:57:00.699Z,52.3
2023-03-15T00:58:00.562Z,52.2
2023-03-15T00:59:00.583Z,52.0
2023-03-15T01:00:00.606Z,51.8
2023-03-15T01:01:04.051Z,51.5
2023-03-15T01:02:01.311Z,51.5
2023-03-15T01:03:00.607Z,51.6
2023-03-15T01:04:00.558Z,51.7
2023-03-15T01:05:00.603Z,51.7
2023-03-15T01:06:09.230Z,51.8
2023-03-15T01:07:00.600Z,51.9
2023-03-15T01:08:00.593Z,52.0
2023-03-15T01:09:00.577Z,51.9
2023-03-15T01:10:01.388Z,51.8
2023-03-15T01:11:01.721Z,51.7
2023-03-15T01:12:00.674Z,51.8
2023-03-15T01:13:00.572Z,51.6
2023-03-15T01:14:00.585Z,51.6
2023-03-15T01:15:01.387Z,51.7
2023-03-15T01:16:00.855Z,51.6
2023-03-15T01:17:00.556Z,51.6
2023-03-15T01:18:00.803Z,51.7
2023-03-15T01:19:00.595Z,51.7
2023-03-15T01:20:00.916Z,51.7
2023-03-15T01:21:00.558Z,51.7
2023-03-15T01:22:00.600Z,51.8
2023-03-15T01:23:00.616Z,51.7
2023-03-15T01:24:00.635Z,51.9
2023-03-15T01:25:00.556Z,51.8
2023-03-15T01:26:01.398Z,51.6
2023-03-15T01:27:00.600Z,51.7
2023-03-15T01:28:00.600Z,51.7
2023-03-15T01:29:00.609Z,51.7
2023-03-15T01:30:00.695Z,51.7
2023-03-15T01:31:00.729Z,51.7
2023-03-15T01:32:00.547Z,51.7
2023-03-15T01:33:00.678Z,51.7
2023-03-15T01:34:00.634Z,51.9
2023-03-15T01:35:00.592Z,52.0
2023-03-15T01:36:01.976Z,51.9
2023-03-15T01:37:00.604Z,52.0
2023-03-15T01:38:00.583Z,51.9
2023-03-15T01:39:00.568Z,51.9
2023-03-15T01:40:00.598Z,51.9
2023-03-15T01:41:00.761Z,51.8
2023-03-15T01:42:01.108Z,51.7
2023-03-15T01:43:01.580Z,51.9
2023-03-15T01:44:00.589Z,51.7
2023-03-15T01:45:00.748Z,51.9
2023-03-15T01:46:00.566Z,51.8
2023-03-15T01:47:00.691Z,51.8
2023-03-15T01:48:00.583Z,51.8
2023-03-15T01:49:05.610Z,51.8
2023-03-15T01:50:03.615Z,52.1
2023-03-15T01:51:03.362Z,52.0
2023-03-15T01:52:03.956Z,51.9
2023-03-15T01:53:00.621Z,51.9
2023-03-15T01:54:01.611Z,51.9
2023-03-15T01:55:03.894Z,52.0
2023-03-15T01:56:01.568Z,52.0
2023-03-15T01:57:07.094Z,51.9
2023-03-15T01:58:01.101Z,51.8
2023-03-15T01:59:02.430Z,51.8
2023-03-15T02:00:05.755Z,51.8
2023-03-15T02:01:01.465Z,51.8
2023-03-15T02:02:00.897Z,51.8
2023-03-15T02:03:04.795Z,52.0
2023-03-15T02:04:04.374Z,52.1
2023-03-15T02:05:05.347Z,52.1
2023-03-15T02:06:03.920Z,52.1
2023-03-15T02:07:02.433Z,52.4
2023-03-15T02:08:01.578Z,52.4
2023-03-15T02:09:03.693Z,52.7
2023-03-15T02:10:03.036Z,53.2
2023-03-15T02:11:01.727Z,53.3
2023-03-15T02:12:00.774Z,53.7
2023-03-15T02:13:01.372Z,53.7
2023-03-15T02:14:00.991Z,53.8
2023-03-15T02:15:03.028Z,53.9
2023-03-15T02:16:00.848Z,54.2
2023-03-15T02:17:00.595Z,54.2
2023-03-15T02:18:00.886Z,54.1
2023-03-15T02:19:00.607Z,54.2
2023-03-15T02:20:10.653Z,54.4
2023-03-15T02:21:05.108Z,54.2
2023-03-15T02:22:08.882Z,54.2
2023-03-15T02:23:00.572Z,54.0
2023-03-15T02:24:03.878Z,54.1
2023-03-15T02:25:00.539Z,54.0
2023-03-15T02:26:08.377Z,54.0
2023-03-15T02:27:00.627Z,54.1
2023-03-15T02:28:01.666Z,53.8
2023-03-15T02:29:00.689Z,53.7
2023-03-15T02:30:01.509Z,53.7
2023-03-15T02:31:00.612Z,53.6
2023-03-15T02:32:01.270Z,53.5
2023-03-15T02:33:02.050Z,53.8
2023-03-15T02:34:00.572Z,53.7
2023-03-15T02:35:00.631Z,53.9
2023-03-15T02:36:10.503Z,54.0
2023-03-15T02:37:00.578Z,54.0
2023-03-15T02:38:00.575Z,54.0
2023-03-15T02:39:01.057Z,54.0
2023-03-15T02:40:00.656Z,54.2
2023-03-15T02:41:00.598Z,54.1
2023-03-15T02:42:00.611Z,54.2
2023-03-15T02:43:04.157Z,54.2
2023-03-15T02:44:03.977Z,54.3
2023-03-15T02:45:00.937Z,54.2
2023-03-15T02:46:01.975Z,54.0
2023-03-15T02:47:03.737Z,54.0
2023-03-15T02:48:01.279Z,53.9
2023-03-15T02:49:01.013Z,53.9
2023-03-15T02:50:00.575Z,53.9
2023-03-15T02:51:00.656Z,53.8
2023-03-15T02:52:00.579Z,53.9
2023-03-15T02:53:00.572Z,53.9
2023-03-15T02:54:00.564Z,54.3
2023-03-15T02:55:00.583Z,54.4
2023-03-15T02:56:00.593Z,54.6
2023-03-15T02:57:01.405Z,54.5
2023-03-15T02:58:01.186Z,54.7
2023-03-15T02:59:00.611Z,54.8
2023-03-15T03:00:00.945Z,54.9
2023-03-15T03:01:00.629Z,54.6
2023-03-15T03:02:00.681Z,54.6
2023-03-15T03:03:00.597Z,55.0
2023-03-15T03:04:00.600Z,54.9
2023-03-15T03:05:00.593Z,54.7
2023-03-15T03:06:00.597Z,54.5
2023-03-15T03:07:00.586Z,54.4
2023-03-15T03:08:00.607Z,54.4
2023-03-15T03:09:00.773Z,54.4
2023-03-15T03:10:00.867Z,54.2
2023-03-15T03:11:00.636Z,54.1
2023-03-15T03:12:00.554Z,53.9
2023-03-15T03:13:00.634Z,53.8
2023-03-15T03:14:00.580Z,53.7
2023-03-15T03:15:00.584Z,53.6
2023-03-15T03:16:00.586Z,53.4
2023-03-15T03:17:00.634Z,53.2
2023-03-15T03:18:00.564Z,53.0
2023-03-15T03:19:00.581Z,52.7
2023-03-15T03:20:00.567Z,52.6
2023-03-15T03:21:01.848Z,52.5
2023-03-15T03:22:00.603Z,52.3
2023-03-15T03:23:00.597Z,52.3
2023-03-15T03:24:00.851Z,52.3
2023-03-15T03:25:00.557Z,52.4
2023-03-15T03:26:00.802Z,52.6
2023-03-15T03:27:00.600Z,52.5
2023-03-15T03:28:00.549Z,52.5
2023-03-15T03:29:00.551Z,52.5
2023-03-15T03:30:00.596Z,52.5
2023-03-15T03:31:00.628Z,52.3
2023-03-15T03:32:00.546Z,52.1
2023-03-15T03:33:00.614Z,52.1
2023-03-15T03:34:00.578Z,52.0
2023-03-15T03:35:00.921Z,51.9
2023-03-15T03:36:00.659Z,51.6
2023-03-15T03:37:00.654Z,51.6
2023-03-15T03:38:00.550Z,51.5
2023-03-15T03:39:00.611Z,51.2
2023-03-15T03:40:00.604Z,51.1
2023-03-15T03:41:00.566Z,51.0
2023-03-15T03:42:00.600Z,50.9
2023-03-15T03:43:01.344Z,50.8
2023-03-15T03:44:00.538Z,50.9
2023-03-15T03:45:00.698Z,51.0
2023-03-15T03:46:00.792Z,50.8
2023-03-15T03:47:00.576Z,50.9
2023-03-15T03:48:00.610Z,50.8
2023-03-15T03:49:00.678Z,50.8
2023-03-15T03:50:00.598Z,50.7
2023-03-15T03:51:00.648Z,50.7
2023-03-15T03:52:00.576Z,50.7
2023-03-15T03:53:00.577Z,51.1
2023-03-15T03:54:00.876Z,51.1
2023-03-15T03:55:00.776Z,51.2
2023-03-15T03:56:02.916Z,51.1
2023-03-15T03:57:00.622Z,51.1
2023-03-15T03:58:00.589Z,51.2
2023-03-15T03:59:00.546Z,51.0
2023-03-15T04:00:00.557Z,50.9
2023-03-15T04:01:00.559Z,50.6
2023-03-15T04:02:00.572Z,50.6
2023-03-15T04:03:00.605Z,50.7
2023-03-15T04:04:00.545Z,50.8
2023-03-15T04:05:00.819Z,51.0
2023-03-15T04:06:00.553Z,51.0
2023-03-15T04:07:00.581Z,51.1
2023-03-15T04:08:00.630Z,51.3
2023-03-15T04:09:00.877Z,51.5
2023-03-15T04:10:00.527Z,51.3
2023-03-15T04:11:00.822Z,51.3
2023-03-15T04:12:00.578Z,51.3
2023-03-15T04:13:00.635Z,51.3
2023-03-15T04:14:00.601Z,51.5
2023-03-15T04:15:00.586Z,51.3
2023-03-15T04:16:00.666Z,51.2
2023-03-15T04:17:00.558Z,51.0
2023-03-15T04:18:00.563Z,50.7
2023-03-15T04:19:00.782Z,50.4
2023-03-15T04:20:00.559Z,50.2
2023-03-15T04:21:00.830Z,49.9
2023-03-15T04:22:01.003Z,49.6
2023-03-15T04:23:00.561Z,49.5
2023-03-15T04:24:01.034Z,49.2
2023-03-15T04:25:00.641Z,49.0
2023-03-15T04:26:00.585Z,48.8
2023-03-15T04:27:00.997Z,48.6
2023-03-15T04:28:00.527Z,48.4
2023-03-15T04:29:00.584Z,48.3
2023-03-15T04:30:00.632Z,48.2
2023-03-15T04:31:00.632Z,48.2
2023-03-15T04:32:00.586Z,48.2
2023-03-15T04:33:00.659Z,48.2
2023-03-15T04:34:00.564Z,48.4
2023-03-15T04:35:00.630Z,48.5
2023-03-15T04:36:00.664Z,48.7
2023-03-15T04:37:00.569Z,48.9
2023-03-15T04:38:00.909Z,49.0
2023-03-15T04:39:00.585Z,49.2
2023-03-15T04:40:00.579Z,49.3
2023-03-15T04:41:00.653Z,49.3
2023-03-15T04:42:00.605Z,49.4
2023-03-15T04:43:01.708Z,49.5
2023-03-15T04:44:02.369Z,49.6
2023-03-15T04:45:00.639Z,49.6
2023-03-15T04:46:00.566Z,49.6
2023-03-15T04:47:00.654Z,49.6
2023-03-15T04:48:00.766Z,49.7
2023-03-15T04:49:00.595Z,49.8
2023-03-15T04:50:00.586Z,49.8
2023-03-15T04:51:00.624Z,49.8
2023-03-15T04:52:00.616Z,49.9
2023-03-15T04:53:00.584Z,50.0
2023-03-15T04:54:00.913Z,50.0
2023-03-15T04:55:00.575Z,49.9
2023-03-15T04:56:01.925Z,49.9
2023-03-15T04:57:00.588Z,49.8
2023-03-15T04:58:00.605Z,49.8
2023-03-15T04:59:00.552Z,49.7
2023-03-15T05:00:00.599Z,49.7
2023-03-15T05:01:00.583Z,49.7
2023-03-15T05:02:02.802Z,49.7
2023-03-15T05:03:00.730Z,49.8
2023-03-15T05:04:00.556Z,49.7
2023-03-15T05:05:00.637Z,49.7
2023-03-15T05:06:01.195Z,49.6
2023-03-15T05:07:00.591Z,49.6
2023-03-15T05:08:00.594Z,49.6
2023-03-15T05:09:00.564Z,49.5
2023-03-15T05:10:00.685Z,49.5
2023-03-15T05:11:00.921Z,49.4
2023-03-15T05:12:00.602Z,49.4
2023-03-15T05:13:00.572Z,49.4
2023-03-15T05:14:00.613Z,49.4
2023-03-15T05:15:00.804Z,49.4
2023-03-15T05:16:00.633Z,49.3
2023-03-15T05:17:00.585Z,49.3
2023-03-15T05:18:00.622Z,49.3
2023-03-15T05:19:00.553Z,49.3
2023-03-15T05:20:00.599Z,49.3
2023-03-15T05:21:00.597Z,49.2
2023-03-15T05:22:01.290Z,49.2
2023-03-15T05:23:00.567Z,49.2
2023-03-15T05:24:00.580Z,49.1
2023-03-15T05:25:00.645Z,49.1
2023-03-15T05:26:00.714Z,49.1
2023-03-15T05:27:00.617Z,49.2
2023-03-15T05:28:00.763Z,49.1
2023-03-15T05:29:00.558Z,49.2
2023-03-15T05:30:00.864Z,49.1
2023-03-15T05:31:00.840Z,48.8
2023-03-15T05:32:00.675Z,48.7
2023-03-15T05:33:00.770Z,48.4
2023-03-15T05:34:00.584Z,48.3
2023-03-15T05:35:01.007Z,48.1
2023-03-15T05:36:00.673Z,48.0
2023-03-15T05:37:00.581Z,47.9
2023-03-15T05:38:00.600Z,47.8
2023-03-15T05:39:00.595Z,47.7
2023-03-15T05:40:00.626Z,47.8
2023-03-15T05:41:00.543Z,47.7
2023-03-15T05:42:00.554Z,47.7
2023-03-15T05:43:00.560Z,47.7
2023-03-15T05:44:00.585Z,47.7
2023-03-15T05:45:00.710Z,47.8
2023-03-15T05:46:00.708Z,47.9
2023-03-15T05:47:00.648Z,47.9
2023-03-15T05:48:00.589Z,48.1
2023-03-15T05:49:00.632Z,48.2
2023-03-15T05:50:01.311Z,48.2
2023-03-15T05:51:00.602Z,48.3
2023-03-15T05:52:00.624Z,48.3
2023-03-15T05:53:00.657Z,48.4
2023-03-15T05:54:00.668Z,48.4
2023-03-15T05:55:00.597Z,48.5
2023-03-15T05:56:00.574Z,48.5
2023-03-15T05:57:00.609Z,48.6
2023-03-15T05:58:00.660Z,48.7
2023-03-15T05:59:00.596Z,48.8
2023-03-15T06:00:00.766Z,48.8
2023-03-15T06:01:01.538Z,48.7
2023-03-15T06:02:00.585Z,48.9
2023-03-15T06:03:00.612Z,48.8
2023-03-15T06:04:00.664Z,48.9
2023-03-15T06:05:00.622Z,48.9
2023-03-15T06:06:00.579Z,49.0
2023-03-15T06:07:00.577Z,48.9
2023-03-15T06:08:00.568Z,48.9
2023-03-15T06:09:00.745Z,48.9
2023-03-15T06:10:00.598Z,48.9
2023-03-15T06:11:00.648Z,48.8
2023-03-15T06:12:00.568Z,48.9
2023-03-15T06:13:00.642Z,48.9
2023-03-15T06:14:00.630Z,49.0
2023-03-15T06:15:00.764Z,49.0
2023-03-15T06:16:00.592Z,49.0
2023-03-15T06:17:00.674Z,48.9
2023-03-15T06:18:00.626Z,49.0
2023-03-15T06:19:00.643Z,49.0
2023-03-15T06:20:00.641Z,48.9
2023-03-15T06:21:00.564Z,48.8
2023-03-15T06:22:00.589Z,48.8
2023-03-15T06:23:00.568Z,48.7
2023-03-15T06:24:00.579Z,48.7
2023-03-15T06:25:00.580Z,48.8
2023-03-15T06:26:00.578Z,48.8
2023-03-15T06:27:00.914Z,48.8
2023-03-15T06:28:00.614Z,48.8
2023-03-15T06:29:00.737Z,48.8
2023-03-15T06:30:00.629Z,48.8
2023-03-15T06:31:06.444Z,48.7
2023-03-15T06:32:00.577Z,48.8
2023-03-15T06:33:00.644Z,48.9
2023-03-15T06:34:00.588Z,48.9
2023-03-15T06:35:00.600Z,48.9
2023-03-15T06:36:00.702Z,48.9
2023-03-15T06:37:00.534Z,48.9
2023-03-15T06:38:00.561Z,48.9
2023-03-15T06:39:00.929Z,48.9
2023-03-15T06:40:01.454Z,48.8
2023-03-15T06:41:00.580Z,48.6
2023-03-15T06:42:00.654Z,48.6
2023-03-15T06:43:00.604Z,48.5
2023-03-15T06:44:00.557Z,48.6
2023-03-15T06:45:00.601Z,48.6
2023-03-15T06:46:00.597Z,48.5
2023-03-15T06:47:00.602Z,48.6
2023-03-15T06:48:00.591Z,48.5
2023-03-15T06:49:00.652Z,48.5
2023-03-15T06:50:00.603Z,48.5
2023-03-15T06:51:00.577Z,48.6
2023-03-15T06:52:00.579Z,48.5
2023-03-15T06:53:00.650Z,48.5
2023-03-15T06:54:00.572Z,48.4
2023-03-15T06:55:00.637Z,48.4
2023-03-15T06:56:00.601Z,48.4
2023-03-15T06:57:00.582Z,48.4
2023-03-15T06:58:00.592Z,48.3
2023-03-15T06:59:00.567Z,48.2
2023-03-15T07:00:00.571Z,48.2
2023-03-15T07:01:00.625Z,48.0
2023-03-15T07:02:00.722Z,47.7
2023-03-15T07:03:00.641Z,47.7
2023-03-15T07:04:00.674Z,47.5
2023-03-15T07:05:00.542Z,47.5
2023-03-15T07:06:00.592Z,47.4
2023-03-15T07:07:00.616Z,47.4
2023-03-15T07:08:00.605Z,47.2
2023-03-15T07:09:00.956Z,47.2
2023-03-15T07:10:00.610Z,47.0
2023-03-15T07:11:01.554Z,46.9
2023-03-15T07:12:00.579Z,46.5
2023-03-15T07:13:00.550Z,46.3
2023-03-15T07:14:00.596Z,45.8
2023-03-15T07:15:00.652Z,45.8
2023-03-15T07:16:00.665Z,45.1
2023-03-15T07:17:00.586Z,44.7
2023-03-15T07:18:00.613Z,44.6
2023-03-15T07:19:00.716Z,44.2
2023-03-15T07:20:00.582Z,43.7
2023-03-15T07:21:02.080Z,43.9
2023-03-15T07:22:00.624Z,43.4
2023-03-15T07:23:00.567Z,43.0
2023-03-15T07:24:00.560Z,42.6
2023-03-15T07:25:00.605Z,42.8
2023-03-15T07:26:00.648Z,42.5
2023-03-15T07:27:00.573Z,43.0
2023-03-15T07:28:00.576Z,43.1
2023-03-15T07:29:00.610Z,42.8
2023-03-15T07:30:00.613Z,41.8
2023-03-15T07:31:01.943Z,41.9
2023-03-15T07:32:00.627Z,41.8
2023-03-15T07:33:00.796Z,41.0
2023-03-15T07:34:00.588Z,41.2
2023-03-15T07:35:00.620Z,41.1
2023-03-15T07:36:00.932Z,40.8
2023-03-15T07:37:00.691Z,41.0
2023-03-15T07:38:00.593Z,40.1
2023-03-15T07:39:00.605Z,39.1
2023-03-15T07:40:00.629Z,39.3
2023-03-15T07:41:01.127Z,39.6
2023-03-15T07:42:00.607Z,39.2
2023-03-15T07:43:00.562Z,38.4
2023-03-15T07:44:00.574Z,38.3
2023-03-15T07:45:00.656Z,38.5
2023-03-15T07:46:00.569Z,38.6
2023-03-15T07:47:00.629Z,39.1
2023-03-15T07:48:00.702Z,39.2
2023-03-15T07:49:00.594Z,38.6
2023-03-15T07:50:00.706Z,38.6
2023-03-15T07:51:00.592Z,38.1
2023-03-15T07:52:00.559Z,37.4
2023-03-15T07:53:00.554Z,37.1
2023-03-15T07:54:00.596Z,37.0
2023-03-15T07:55:00.576Z,36.5
2023-03-15T07:56:00.577Z,36.5
2023-03-15T07:57:00.558Z,36.2
2023-03-15T07:58:00.689Z,36.4
2023-03-15T07:59:00.840Z,36.0
2023-03-15T08:00:00.619Z,36.2
2023-03-15T08:01:00.598Z,35.6
2023-03-15T08:02:02.828Z,35.4
2023-03-15T08:03:00.628Z,34.4
2023-03-15T08:04:00.562Z,34.4
2023-03-15T08:05:00.602Z,34.7
2023-03-15T08:06:00.754Z,34.7
2023-03-15T08:07:00.606Z,34.3
2023-03-15T08:08:00.573Z,34.7
2023-03-15T08:09:00.557Z,34.8
2023-03-15T08:10:00.648Z,33.2
2023-03-15T08:11:00.594Z,33.5
2023-03-15T08:12:00.963Z,32.7
2023-03-15T08:13:00.614Z,30.7
2023-03-15T08:14:00.593Z,30.6
2023-03-15T08:15:00.553Z,32.3
2023-03-15T08:16:00.843Z,32.5
2023-03-15T08:17:00.609Z,31.9
2023-03-15T08:18:00.575Z,30.5
2023-03-15T08:19:00.566Z,30.7
2023-03-15T08:20:00.601Z,31.9
2023-03-15T08:21:00.628Z,32.3
2023-03-15T08:22:00.574Z,31.7
2023-03-15T08:23:00.587Z,31.5
2023-03-15T08:24:00.794Z,30.5
2023-03-15T08:25:00.565Z,30.3
2023-03-15T08:26:00.568Z,30.4
2023-03-15T08:27:00.878Z,29.7
2023-03-15T08:28:00.566Z,30.6
2023-03-15T08:29:00.604Z,31.1
2023-03-15T08:30:00.632Z,30.6
2023-03-15T08:31:00.572Z,30.9
2023-03-15T08:32:00.708Z,30.0
2023-03-15T08:33:00.875Z,30.0
2023-03-15T08:34:00.593Z,29.4
2023-03-15T08:35:00.580Z,28.5
2023-03-15T08:36:00.616Z,27.6
2023-03-15T08:37:00.592Z,28.5
2023-03-15T08:38:01.084Z,28.7
2023-03-15T08:39:00.611Z,28.0
2023-03-15T08:40:00.611Z,28.6
2023-03-15T08:41:00.710Z,29.5
2023-03-15T08:42:00.609Z,27.9
2023-03-15T08:43:00.643Z,28.9
2023-03-15T08:44:00.586Z,28.7
2023-03-15T08:45:00.589Z,28.6
2023-03-15T08:46:01.824Z,28.1
2023-03-15T08:47:00.656Z,28.1
2023-03-15T08:48:00.557Z,27.5
2023-03-15T08:49:01.720Z,27.0
2023-03-15T08:50:01.386Z,27.1
2023-03-15T08:51:01.605Z,26.6
2023-03-15T08:52:00.585Z,26.0
2023-03-15T08:53:00.548Z,24.4
2023-03-15T08:54:00.648Z,25.6
2023-03-15T08:55:00.696Z,25.5
2023-03-15T08:56:00.743Z,25.5
2023-03-15T08:57:00.554Z,24.8
2023-03-15T08:58:01.720Z,25.0
2023-03-15T08:59:00.604Z,25.4
2023-03-15T09:00:01.378Z,25.3
2023-03-15T09:01:01.159Z,23.4
2023-03-15T09:02:00.929Z,24.5
2023-03-15T09:03:00.608Z,24.4
2023-03-15T09:04:00.720Z,23.7
2023-03-15T09:05:00.914Z,22.8
2023-03-15T09:06:00.592Z,23.5
2023-03-15T09:07:00.611Z,22.6
2023-03-15T09:08:00.562Z,23.4
2023-03-15T09:09:00.592Z,23.1
2023-03-15T09:10:02.010Z,22.5
2023-03-15T09:11:00.654Z,21.4
2023-03-15T09:12:00.621Z,22.3
2023-03-15T09:13:00.543Z,22.3
2023-03-15T09:14:00.872Z,22.0
2023-03-15T09:15:00.572Z,21.7
2023-03-15T09:16:00.621Z,22.2
2023-03-15T09:17:00.658Z,22.2
2023-03-15T09:18:00.549Z,21.0
2023-03-15T09:19:00.729Z,21.2
2023-03-15T09:20:00.607Z,21.0
2023-03-15T09:21:00.581Z,21.3
2023-03-15T09:22:15.905Z,20.8
2023-03-15T09:23:00.564Z,20.9
2023-03-15T09:24:00.564Z,21.1
2023-03-15T09:25:00.590Z,20.3
2023-03-15T09:26:00.582Z,20.7
2023-03-15T09:27:00.628Z,20.3
2023-03-15T09:28:00.576Z,20.7
2023-03-15T09:29:00.691Z,21.3
2023-03-15T09:30:00.628Z,21.4
2023-03-15T09:31:03.973Z,21.8
2023-03-15T09:32:00.609Z,21.4
2023-03-15T09:33:00.678Z,21.5
2023-03-15T09:34:00.585Z,21.0
2023-03-15T09:35:03.305Z,19.8
2023-03-15T09:36:00.606Z,19.3
2023-03-15T09:37:00.581Z,20.4
2023-03-15T09:38:00.708Z,20.1
2023-03-15T09:39:00.576Z,19.4
2023-03-15T09:40:00.600Z,19.9
2023-03-15T09:41:00.569Z,20.2
2023-03-15T09:42:01.605Z,19.3
2023-03-15T09:43:03.117Z,19.2
2023-03-15T09:44:03.899Z,19.4
2023-03-15T09:45:10.438Z,19.6
2023-03-15T09:46:00.633Z,18.9
2023-03-15T09:47:01.578Z,19.0
2023-03-15T09:48:10.448Z,20.1
2023-03-15T09:49:06.925Z,19.9
2023-03-15T09:50:06.188Z,19.5
2023-03-15T09:51:01.586Z,19.3
2023-03-15T09:52:05.900Z,19.1
2023-03-15T09:53:03.877Z,19.5
2023-03-15T09:54:09.091Z,19.8
2023-03-15T09:55:10.464Z,19.7
2023-03-15T09:56:00.593Z,19.5
2023-03-15T09:57:02.022Z,19.6
2023-03-15T09:58:00.572Z,19.8
2023-03-15T09:59:00.728Z,20.4
2023-03-15T10:00:01.601Z,20.4
2023-03-15T10:01:04.241Z,21.2
2023-03-15T10:02:03.072Z,21.7
2023-03-15T10:03:01.268Z,22.7
2023-03-15T10:04:09.216Z,23.3
2023-03-15T10:05:04.586Z,23.6
2023-03-15T10:06:04.546Z,23.3
2023-03-15T10:07:01.738Z,22.5
2023-03-15T10:08:00.584Z,23.2
2023-03-15T10:09:02.854Z,22.8
2023-03-15T10:10:00.631Z,22.8
2023-03-15T10:11:03.926Z,23.3
2023-03-15T10:12:04.850Z,22.9
2023-03-15T10:13:10.154Z,23.1
2023-03-15T10:14:00.576Z,22.9
2023-03-15T10:15:10.512Z,22.9
2023-03-15T10:16:07.281Z,23.1
2023-03-15T10:17:02.621Z,24.2
2023-03-15T10:18:10.437Z,24.9
2023-03-15T10:19:10.494Z,25.2
2023-03-15T10:20:10.494Z,25.7
2023-03-15T10:21:05.126Z,26.1
2023-03-15T10:22:02.930Z,26.2
2023-03-15T10:23:01.622Z,25.9
2023-03-15T10:24:01.685Z,25.7
2023-03-15T10:25:01.617Z,25.7
2023-03-15T10:26:03.147Z,25.4
2023-03-15T10:27:07.042Z,25.6
2023-03-15T10:28:03.443Z,26.1
2023-03-15T10:29:01.932Z,26.4
2023-03-15T10:30:01.452Z,26.5
2023-03-15T10:31:07.049Z,26.0
2023-03-15T10:32:01.242Z,26.0
2023-03-15T10:33:04.682Z,25.4
2023-03-15T10:34:00.723Z,25.4
2023-03-15T10:35:00.612Z,25.1
2023-03-15T10:36:10.948Z,25.5
2023-03-15T10:37:00.580Z,25.5
2023-03-15T10:38:00.610Z,24.4
2023-03-15T10:39:00.602Z,24.1
2023-03-15T10:40:00.598Z,24.1
2023-03-15T10:41:04.414Z,24.5
2023-03-15T10:42:02.226Z,24.9
2023-03-15T10:43:00.540Z,25.7
2023-03-15T10:44:03.674Z,25.4
2023-03-15T10:45:10.451Z,26.0
2023-03-15T10:46:01.623Z,26.6
2023-03-15T10:47:19.727Z,26.0
2023-03-15T10:48:01.363Z,26.0
2023-03-15T10:49:10.450Z,26.2
2023-03-15T10:50:00.557Z,25.7
2023-03-15T10:51:05.693Z,25.6
2023-03-15T10:52:00.596Z,24.5
2023-03-15T10:53:07.070Z,24.6
2023-03-15T10:54:04.422Z,24.6
2023-03-15T10:55:04.558Z,24.7
2023-03-15T10:56:03.955Z,24.9
2023-03-15T10:57:03.257Z,25.4
2023-03-15T10:58:10.480Z,25.1
2023-03-15T10:59:11.872Z,24.7
2023-03-15T11:00:04.756Z,25.3
2023-03-15T11:01:02.279Z,25.1
2023-03-15T11:02:10.421Z,24.1
2023-03-15T11:03:02.087Z,25.1
2023-03-15T11:04:00.712Z,25.8
2023-03-15T11:05:03.953Z,26.1
2023-03-15T11:06:01.114Z,25.7
2023-03-15T11:07:02.391Z,26.1
2023-03-15T11:08:00.551Z,25.0
2023-03-15T11:09:09.186Z,25.2
2023-03-15T11:10:01.359Z,25.7
2023-03-15T11:11:00.585Z,25.1
2023-03-15T11:12:02.135Z,25.3
2023-03-15T11:13:08.723Z,24.5
2023-03-15T11:14:00.610Z,24.3
2023-03-15T11:15:05.612Z,24.2
2023-03-15T11:16:03.225Z,26.1
2023-03-15T11:17:01.310Z,26.7
2023-03-15T11:18:00.553Z,27.2
2023-03-15T11:19:01.679Z,26.6
2023-03-15T11:20:09.771Z,26.5
2023-03-15T11:21:02.884Z,25.5
2023-03-15T11:22:01.080Z,25.2
2023-03-15T11:23:10.450Z,25.0
2023-03-15T11:24:01.512Z,25.3
2023-03-15T11:25:00.721Z,25.7
2023-03-15T11:26:01.463Z,25.7
2023-03-15T11:27:02.821Z,25.0
2023-03-15T11:28:00.645Z,25.9
2023-03-15T11:29:07.116Z,25.8
2023-03-15T11:30:00.835Z,25.9
2023-03-15T11:31:01.127Z,25.8
2023-03-15T11:32:02.786Z,25.3
2023-03-15T11:33:04.594Z,25.2
2023-03-15T11:34:07.084Z,25.2
2023-03-15T11:35:10.425Z,25.3
2023-03-15T11:36:02.484Z,25.5
2023-03-15T11:37:08.905Z,25.6
2023-03-15T11:38:14.716Z,26.0
2023-03-15T11:39:03.094Z,26.6
2023-03-15T11:40:10.518Z,26.8
2023-03-15T11:41:04.416Z,27.1
2023-03-15T11:42:05.540Z,26.6
2023-03-15T11:43:03.942Z,26.7
2023-03-15T11:44:00.565Z,26.4
2023-03-15T11:45:03.736Z,26.6
2023-03-15T11:46:03.421Z,26.3
2023-03-15T11:47:03.504Z,26.3
2023-03-15T11:48:10.257Z,26.4
2023-03-15T11:49:10.440Z,26.4
2023-03-15T11:50:00.619Z,26.0
2023-03-15T11:56:10.535Z,26.1
2023-03-15T11:57:01.717Z,25.6
2023-03-15T11:58:10.509Z,25.7
2023-03-15T11:59:09.529Z,25.7
2023-03-15T12:00:10.576Z,25.5
2023-03-15T12:01:02.054Z,25.7
2023-03-15T12:02:08.147Z,25.5
2023-03-15T12:03:10.576Z,25.5
2023-03-15T12:04:10.649Z,26.2
2023-03-15T12:05:17.662Z,26.9
2023-03-15T12:06:01.679Z,26.9
2023-03-15T12:07:04.632Z,26.8
2023-03-15T12:08:10.508Z,26.3
2023-03-15T12:09:00.651Z,27.4
2023-03-15T12:10:01.655Z,27.5
2023-03-15T12:11:01.224Z,27.6
2023-03-15T12:12:02.485Z,27.3
2023-03-15T12:13:06.729Z,26.9
2023-03-15T12:14:00.605Z,27.3
2023-03-15T12:15:08.045Z,27.0
2023-03-15T12:16:00.678Z,27.4
2023-03-15T12:17:10.501Z,27.8
2023-03-15T12:18:04.495Z,28.3
2023-03-15T12:19:02.132Z,29.1
2023-03-15T12:20:05.741Z,28.6
2023-03-15T12:21:03.929Z,27.9
2023-03-15T12:22:00.668Z,27.6
2023-03-15T12:23:10.546Z,27.5
2023-03-15T12:24:03.174Z,27.2
2023-03-15T12:25:09.488Z,27.0
2023-03-15T12:26:01.668Z,27.4
2023-03-15T12:27:10.570Z,27.4
2023-03-15T12:28:04.217Z,27.1
2023-03-15T12:29:07.874Z,26.8
2023-03-15T12:30:01.179Z,26.7
2023-03-15T12:31:02.237Z,27.0
2023-03-15T12:32:00.642Z,26.8
2023-03-15T12:33:01.485Z,26.7
2023-03-15T12:47:01.663Z,26.6
2023-03-15T12:48:00.579Z,26.3
2023-03-15T12:49:04.730Z,26.6
2023-03-15T12:50:10.458Z,26.5
2023-03-15T12:51:01.956Z,26.9
2023-03-15T12:52:00.612Z,26.5
2023-03-15T12:53:01.711Z,26.2
2023-03-15T12:54:02.719Z,26.3
2023-03-15T12:55:04.835Z,26.3
2023-03-15T12:56:10.455Z,26.3
2023-03-15T12:57:02.530Z,26.1
2023-03-15T12:58:01.983Z,26.1
2023-03-15T12:59:09.073Z,26.1
2023-03-15T13:00:10.461Z,25.9
2023-03-15T13:01:02.982Z,25.6
2023-03-15T13:02:01.960Z,25.4
2023-03-15T13:03:04.390Z,25.3
2023-03-15T13:04:01.958Z,25.7
2023-03-15T13:10:00.745Z,27.1
2023-03-15T13:11:07.870Z,27.2
2023-03-15T13:12:10.404Z,27.2
2023-03-15T13:13:10.370Z,27.2
2023-03-15T13:14:01.541Z,27.0
2023-03-15T13:15:08.515Z,26.2
2023-03-15T13:16:07.863Z,24.9
2023-03-15T13:17:10.397Z,25.6
2023-03-15T13:18:10.029Z,25.0
2023-03-15T13:19:09.425Z,24.5
2023-03-15T13:20:10.434Z,25.1
2023-03-15T13:21:10.365Z,25.2
2023-03-15T13:22:08.455Z,25.7
2023-03-15T13:23:00.507Z,26.1
2023-03-15T13:24:01.270Z,26.2
2023-03-15T13:25:10.411Z,25.9
2023-03-15T13:26:07.705Z,25.6
2023-03-15T13:27:07.460Z,25.5
2023-03-15T13:28:05.217Z,25.7
2023-03-15T13:29:03.056Z,25.3
2023-03-15T13:30:08.225Z,25.3
2023-03-15T13:31:00.894Z,25.5
2023-03-15T13:32:05.864Z,25.1
2023-03-15T13:33:04.108Z,24.9
2023-03-15T13:34:10.379Z,24.8
2023-03-15T13:35:00.704Z,24.6
2023-03-15T13:36:00.549Z,24.9
2023-03-15T13:37:00.623Z,25.9
2023-03-15T13:38:10.384Z,25.5
2023-03-15T13:39:00.504Z,25.6
2023-03-15T13:40:01.753Z,25.6
2023-03-15T13:41:01.987Z,25.5